sensor_id;sensor_type;location;lat;lon;timestamp;P1;durP1;ratioP1;P2;durP2;ratioP2
24337;SDS011;12457;50.832;4.346;2023-06-22T00:01:19;4.43;;;2.63;;
24337;SDS011;12457;50.832;4.346;2023-06-22T00:03:46;3.78;;;2.97;;
24337;SDS011;12457;50.832;4.346;2023-06-22T00:06:16;4.13;;;2.30;;
24337;SDS011;12457;50.832;4.346;2023-06-22T00:08:45;6.63;;;2.75;;
24337;SDS011;12457;50.832;4.346;2023-06-22T00:11:11;9.23;;;2.90;;
24337;SDS011;12457;50.832;4.346;2023-06-22T00:13:37;6.13;;;2.55;;
24337;SDS011;12457;50.832;4.346;2023-06-22T00:16:03;4.97;;;2.78;;
24337;SDS011;12457;50.832;4.346;2023-06-22T00:18:31;3.72;;;2.45;;
24337;SDS011;12457;50.832;4.346;2023-06-22T00:21:09;10.30;;;3.22;;
24337;SDS011;12457;50.832;4.346;2023-06-22T00:23:37;7.22;;;2.97;;
24337;SDS011;12457;50.832;4.346;2023-06-22T00:26:04;4.60;;;2.65;;
24337;SDS011;12457;50.832;4.346;2023-06-22T00:28:30;7.65;;;3.03;;
24337;SDS011;12457;50.832;4.346;2023-06-22T00:30:57;4.18;;;2.78;;
24337;SDS011;12457;50.832;4.346;2023-06-22T00:33:22;5.28;;;3.15;;
24337;SDS011;12457;50.832;4.346;2023-06-22T00:35:49;9.05;;;3.00;;
24337;SDS011;12457;50.832;4.346;2023-06-22T00:38:17;6.05;;;3.38;;
24337;SDS011;12457;50.832;4.346;2023-06-22T00:40:43;6.15;;;3.33;;
24337;SDS011;12457;50.832;4.346;2023-06-22T00:43:09;5.57;;;3.35;;
24337;SDS011;12457;50.832;4.346;2023-06-22T00:45:34;6.88;;;4.25;;
24337;SDS011;12457;50.832;4.346;2023-06-22T00:48:01;5.00;;;3.35;;
24337;SDS011;12457;50.832;4.346;2023-06-22T00:50:34;8.80;;;3.30;;
24337;SDS011;12457;50.832;4.346;2023-06-22T00:53:05;7.75;;;3.47;;
24337;SDS011;12457;50.832;4.346;2023-06-22T00:55:33;5.00;;;3.40;;
24337;SDS011;12457;50.832;4.346;2023-06-22T00:58:03;5.00;;;3.85;;
24337;SDS011;12457;50.832;4.346;2023-06-22T01:00:33;7.32;;;3.85;;
24337;SDS011;12457;50.832;4.346;2023-06-22T01:02:59;5.85;;;3.30;;
24337;SDS011;12457;50.832;4.346;2023-06-22T01:05:25;4.72;;;3.45;;
24337;SDS011;12457;50.832;4.346;2023-06-22T01:07:55;7.65;;;3.85;;
24337;SDS011;12457;50.832;4.346;2023-06-22T01:10:24;6.00;;;3.65;;
24337;SDS011;12457;50.832;4.346;2023-06-22T01:13:03;8.90;;;3.63;;
24337;SDS011;12457;50.832;4.346;2023-06-22T01:15:57;7.30;;;3.90;;
24337;SDS011;12457;50.832;4.346;2023-06-22T01:18:52;6.63;;;4.03;;
24337;SDS011;12457;50.832;4.346;2023-06-22T01:21:20;7.88;;;3.85;;
24337;SDS011;12457;50.832;4.346;2023-06-22T01:29:55;5.20;;;4.13;;
24337;SDS011;12457;50.832;4.346;2023-06-22T01:32:30;8.05;;;3.95;;
24337;SDS011;12457;50.832;4.346;2023-06-22T01:35:00;6.30;;;4.13;;
24337;SDS011;12457;50.832;4.346;2023-06-22T01:37:31;6.30;;;4.15;;
24337;SDS011;12457;50.832;4.346;2023-06-22T01:39:59;6.53;;;3.95;;
24337;SDS011;12457;50.832;4.346;2023-06-22T01:42:27;7.45;;;4.30;;
24337;SDS011;12457;50.832;4.346;2023-06-22T01:44:53;7.68;;;4.45;;
24337;SDS011;12457;50.832;4.346;2023-06-22T01:47:23;8.07;;;4.55;;
24337;SDS011;12457;50.832;4.346;2023-06-22T01:49:49;6.95;;;4.55;;
24337;SDS011;12457;50.832;4.346;2023-06-22T01:52:18;7.32;;;5.18;;
24337;SDS011;12457;50.832;4.346;2023-06-22T01:54:46;10.40;;;5.03;;
24337;SDS011;12457;50.832;4.346;2023-06-22T01:57:12;7.03;;;4.63;;
24337;SDS011;12457;50.832;4.346;2023-06-22T01:59:59;9.02;;;4.57;;
24337;SDS011;12457;50.832;4.346;2023-06-22T02:02:31;9.00;;;5.05;;
24337;SDS011;12457;50.832;4.346;2023-06-22T02:05:28;7.38;;;5.25;;
24337;SDS011;12457;50.832;4.346;2023-06-22T02:08:01;9.68;;;4.57;;
24337;SDS011;12457;50.832;4.346;2023-06-22T02:10:41;8.30;;;4.70;;
24337;SDS011;12457;50.832;4.346;2023-06-22T02:13:08;7.88;;;4.97;;
24337;SDS011;12457;50.832;4.346;2023-06-22T02:15:36;6.63;;;4.93;;
24337;SDS011;12457;50.832;4.346;2023-06-22T02:18:02;7.72;;;4.63;;
24337;SDS011;12457;50.832;4.346;2023-06-22T02:20:29;9.95;;;4.88;;
24337;SDS011;12457;50.832;4.346;2023-06-22T02:22:55;7.00;;;4.43;;
24337;SDS011;12457;50.832;4.346;2023-06-22T02:25:21;10.23;;;4.55;;
24337;SDS011;12457;50.832;4.346;2023-06-22T02:27:48;8.20;;;4.45;;
24337;SDS011;12457;50.832;4.346;2023-06-22T02:30:14;7.03;;;4.97;;
24337;SDS011;12457;50.832;4.346;2023-06-22T02:32:41;9.90;;;5.25;;
24337;SDS011;12457;50.832;4.346;2023-06-22T02:35:09;6.18;;;4.55;;
24337;SDS011;12457;50.832;4.346;2023-06-22T02:37:39;8.15;;;5.15;;
24337;SDS011;12457;50.832;4.346;2023-06-22T02:40:08;10.23;;;4.88;;
24337;SDS011;12457;50.832;4.346;2023-06-22T02:42:36;7.20;;;4.93;;
24337;SDS011;12457;50.832;4.346;2023-06-22T02:45:05;6.20;;;4.70;;
24337;SDS011;12457;50.832;4.346;2023-06-22T02:47:31;8.15;;;4.70;;
24337;SDS011;12457;50.832;4.346;2023-06-22T02:49:57;7.03;;;4.90;;
24337;SDS011;12457;50.832;4.346;2023-06-22T02:52:23;8.63;;;5.30;;
24337;SDS011;12457;50.832;4.346;2023-06-22T02:54:48;8.80;;;5.18;;
24337;SDS011;12457;50.832;4.346;2023-06-22T02:57:14;10.70;;;6.13;;
24337;SDS011;12457;50.832;4.346;2023-06-22T02:59:40;11.07;;;5.80;;
24337;SDS011;12457;50.832;4.346;2023-06-22T03:02:07;7.63;;;5.53;;
24337;SDS011;12457;50.832;4.346;2023-06-22T03:04:34;12.65;;;5.82;;
24337;SDS011;12457;50.832;4.346;2023-06-22T03:07:01;7.15;;;5.10;;
24337;SDS011;12457;50.832;4.346;2023-06-22T03:09:27;8.30;;;5.35;;
24337;SDS011;12457;50.832;4.346;2023-06-22T03:11:57;6.55;;;5.05;;
24337;SDS011;12457;50.832;4.346;2023-06-22T03:14:23;10.43;;;5.68;;
24337;SDS011;12457;50.832;4.346;2023-06-22T03:16:48;8.07;;;4.93;;
24337;SDS011;12457;50.832;4.346;2023-06-22T03:19:14;7.22;;;4.95;;
24337;SDS011;12457;50.832;4.346;2023-06-22T03:21:40;8.82;;;5.20;;
24337;SDS011;12457;50.832;4.346;2023-06-22T03:24:07;10.13;;;5.65;;
24337;SDS011;12457;50.832;4.346;2023-06-22T03:26:35;9.63;;;5.13;;
24337;SDS011;12457;50.832;4.346;2023-06-22T03:29:00;9.00;;;5.15;;
24337;SDS011;12457;50.832;4.346;2023-06-22T03:31:26;8.20;;;5.00;;
24337;SDS011;12457;50.832;4.346;2023-06-22T03:33:52;9.13;;;4.93;;
24337;SDS011;12457;50.832;4.346;2023-06-22T03:36:17;8.85;;;5.32;;
24337;SDS011;12457;50.832;4.346;2023-06-22T03:38:47;7.65;;;5.00;;
24337;SDS011;12457;50.832;4.346;2023-06-22T03:41:14;10.60;;;5.43;;
24337;SDS011;12457;50.832;4.346;2023-06-22T03:43:40;11.82;;;6.03;;
24337;SDS011;12457;50.832;4.346;2023-06-22T03:46:06;8.65;;;5.82;;
24337;SDS011;12457;50.832;4.346;2023-06-22T03:48:32;14.45;;;5.93;;
24337;SDS011;12457;50.832;4.346;2023-06-22T03:51:02;10.15;;;5.57;;
24337;SDS011;12457;50.832;4.346;2023-06-22T03:53:28;8.02;;;5.68;;
24337;SDS011;12457;50.832;4.346;2023-06-22T03:55:55;14.50;;;5.75;;
24337;SDS011;12457;50.832;4.346;2023-06-22T03:58:21;12.73;;;6.80;;
24337;SDS011;12457;50.832;4.346;2023-06-22T04:00:47;10.55;;;6.40;;
24337;SDS011;12457;50.832;4.346;2023-06-22T04:03:17;11.30;;;7.13;;
24337;SDS011;12457;50.832;4.346;2023-06-22T04:05:44;13.60;;;6.65;;
24337;SDS011;12457;50.832;4.346;2023-06-22T04:08:10;10.55;;;6.97;;
24337;SDS011;12457;50.832;4.346;2023-06-22T04:10:37;15.20;;;7.35;;
24337;SDS011;12457;50.832;4.346;2023-06-22T04:13:03;15.00;;;8.43;;
24337;SDS011;12457;50.832;4.346;2023-06-22T04:15:28;15.70;;;7.55;;
24337;SDS011;12457;50.832;4.346;2023-06-22T04:17:54;13.68;;;7.63;;
24337;SDS011;12457;50.832;4.346;2023-06-22T04:20:23;11.05;;;7.35;;
24337;SDS011;12457;50.832;4.346;2023-06-22T04:22:52;18.08;;;7.10;;
24337;SDS011;12457;50.832;4.346;2023-06-22T04:25:20;12.57;;;7.70;;
24337;SDS011;12457;50.832;4.346;2023-06-22T04:27:50;13.07;;;6.40;;
24337;SDS011;12457;50.832;4.346;2023-06-22T04:30:16;10.98;;;7.20;;
24337;SDS011;12457;50.832;4.346;2023-06-22T04:32:43;12.48;;;8.10;;
24337;SDS011;12457;50.832;4.346;2023-06-22T04:35:10;15.30;;;7.63;;
24337;SDS011;12457;50.832;4.346;2023-06-22T04:37:48;12.98;;;7.55;;
24337;SDS011;12457;50.832;4.346;2023-06-22T04:40:14;11.95;;;8.13;;
24337;SDS011;12457;50.832;4.346;2023-06-22T04:42:40;11.07;;;8.48;;
24337;SDS011;12457;50.832;4.346;2023-06-22T04:45:17;15.60;;;9.57;;
24337;SDS011;12457;50.832;4.346;2023-06-22T04:47:44;12.27;;;9.00;;
24337;SDS011;12457;50.832;4.346;2023-06-22T04:50:11;12.32;;;8.57;;
24337;SDS011;12457;50.832;4.346;2023-06-22T04:52:40;13.60;;;7.97;;
24337;SDS011;12457;50.832;4.346;2023-06-22T04:55:06;15.20;;;8.60;;
24337;SDS011;12457;50.832;4.346;2023-06-22T04:57:34;16.42;;;8.43;;
24337;SDS011;12457;50.832;4.346;2023-06-22T04:59:59;15.35;;;9.48;;
24337;SDS011;12457;50.832;4.346;2023-06-22T05:02:53;14.32;;;10.13;;
24337;SDS011;12457;50.832;4.346;2023-06-22T05:05:24;14.63;;;8.98;;
24337;SDS011;12457;50.832;4.346;2023-06-22T05:07:50;18.73;;;9.77;;
24337;SDS011;12457;50.832;4.346;2023-06-22T05:10:18;19.80;;;9.80;;
24337;SDS011;12457;50.832;4.346;2023-06-22T05:12:45;13.90;;;9.15;;
24337;SDS011;12457;50.832;4.346;2023-06-22T05:15:11;14.63;;;9.25;;
24337;SDS011;12457;50.832;4.346;2023-06-22T05:17:38;18.80;;;10.10;;
24337;SDS011;12457;50.832;4.346;2023-06-22T05:20:09;15.98;;;10.13;;
24337;SDS011;12457;50.832;4.346;2023-06-22T05:22:48;14.18;;;10.82;;
24337;SDS011;12457;50.832;4.346;2023-06-22T05:25:14;19.13;;;10.93;;
24337;SDS011;12457;50.832;4.346;2023-06-22T05:27:40;26.08;;;12.25;;
24337;SDS011;12457;50.832;4.346;2023-06-22T05:30:08;15.88;;;12.00;;
24337;SDS011;12457;50.832;4.346;2023-06-22T05:32:35;19.60;;;13.13;;
24337;SDS011;12457;50.832;4.346;2023-06-22T05:35:02;21.83;;;14.35;;
24337;SDS011;12457;50.832;4.346;2023-06-22T05:37:29;22.70;;;13.30;;
24337;SDS011;12457;50.832;4.346;2023-06-22T05:39:55;24.13;;;14.32;;
24337;SDS011;12457;50.832;4.346;2023-06-22T05:42:22;21.30;;;15.38;;
24337;SDS011;12457;50.832;4.346;2023-06-22T05:44:48;21.75;;;16.38;;
24337;SDS011;12457;50.832;4.346;2023-06-22T05:47:13;21.30;;;15.93;;
24337;SDS011;12457;50.832;4.346;2023-06-22T05:49:39;24.92;;;16.70;;
24337;SDS011;12457;50.832;4.346;2023-06-22T05:52:06;27.05;;;15.95;;
24337;SDS011;12457;50.832;4.346;2023-06-22T05:54:38;18.90;;;14.15;;
24337;SDS011;12457;50.832;4.346;2023-06-22T05:57:04;21.75;;;14.40;;
24337;SDS011;12457;50.832;4.346;2023-06-22T05:59:30;20.55;;;14.93;;
24337;SDS011;12457;50.832;4.346;2023-06-22T06:01:55;23.67;;;14.27;;
24337;SDS011;12457;50.832;4.346;2023-06-22T06:04:21;22.15;;;15.23;;
24337;SDS011;12457;50.832;4.346;2023-06-22T06:06:46;28.33;;;16.98;;
24337;SDS011;12457;50.832;4.346;2023-06-22T06:09:28;26.33;;;16.73;;
24337;SDS011;12457;50.832;4.346;2023-06-22T06:11:54;30.92;;;16.42;;
24337;SDS011;12457;50.832;4.346;2023-06-22T06:14:20;31.25;;;18.25;;
24337;SDS011;12457;50.832;4.346;2023-06-22T06:16:46;28.73;;;19.02;;
24337;SDS011;12457;50.832;4.346;2023-06-22T06:19:15;27.20;;;18.50;;
24337;SDS011;12457;50.832;4.346;2023-06-22T06:21:40;25.88;;;19.00;;
24337;SDS011;12457;50.832;4.346;2023-06-22T06:24:06;28.10;;;18.63;;
24337;SDS011;12457;50.832;4.346;2023-06-22T06:26:32;41.58;;;18.63;;
24337;SDS011;12457;50.832;4.346;2023-06-22T06:29:00;25.63;;;17.70;;
24337;SDS011;12457;50.832;4.346;2023-06-22T06:31:27;30.27;;;17.50;;
24337;SDS011;12457;50.832;4.346;2023-06-22T06:33:53;28.80;;;16.95;;
24337;SDS011;12457;50.832;4.346;2023-06-22T06:36:20;26.05;;;16.90;;
24337;SDS011;12457;50.832;4.346;2023-06-22T06:38:51;27.23;;;16.80;;
24337;SDS011;12457;50.832;4.346;2023-06-22T06:41:20;31.83;;;17.48;;
24337;SDS011;12457;50.832;4.346;2023-06-22T06:43:46;27.77;;;16.50;;
24337;SDS011;12457;50.832;4.346;2023-06-22T06:46:13;24.67;;;16.40;;
24337;SDS011;12457;50.832;4.346;2023-06-22T06:48:39;28.30;;;15.40;;
24337;SDS011;12457;50.832;4.346;2023-06-22T06:51:05;23.08;;;15.90;;
24337;SDS011;12457;50.832;4.346;2023-06-22T06:53:34;20.52;;;15.05;;
24337;SDS011;12457;50.832;4.346;2023-06-22T06:56:00;28.05;;;15.52;;
24337;SDS011;12457;50.832;4.346;2023-06-22T06:58:26;23.08;;;15.85;;
24337;SDS011;12457;50.832;4.346;2023-06-22T07:00:53;23.98;;;15.35;;
24337;SDS011;12457;50.832;4.346;2023-06-22T07:03:20;25.38;;;15.40;;
24337;SDS011;12457;50.832;4.346;2023-06-22T07:05:46;25.38;;;15.20;;
24337;SDS011;12457;50.832;4.346;2023-06-22T07:08:13;25.30;;;15.63;;
24337;SDS011;12457;50.832;4.346;2023-06-22T07:10:39;28.67;;;16.23;;
24337;SDS011;12457;50.832;4.346;2023-06-22T07:13:05;25.58;;;16.35;;
24337;SDS011;12457;50.832;4.346;2023-06-22T07:15:31;21.65;;;14.82;;
24337;SDS011;12457;50.832;4.346;2023-06-22T07:17:56;23.65;;;15.32;;
24337;SDS011;12457;50.832;4.346;2023-06-22T07:20:22;22.05;;;15.40;;
24337;SDS011;12457;50.832;4.346;2023-06-22T07:22:48;25.40;;;14.43;;
24337;SDS011;12457;50.832;4.346;2023-06-22T07:25:14;19.73;;;14.57;;
24337;SDS011;12457;50.832;4.346;2023-06-22T07:27:43;20.80;;;14.30;;
24337;SDS011;12457;50.832;4.346;2023-06-22T07:30:30;22.23;;;15.18;;
24337;SDS011;12457;50.832;4.346;2023-06-22T07:32:59;25.85;;;14.93;;
24337;SDS011;12457;50.832;4.346;2023-06-22T07:35:29;19.42;;;13.98;;
24337;SDS011;12457;50.832;4.346;2023-06-22T07:37:57;28.35;;;14.40;;
24337;SDS011;12457;50.832;4.346;2023-06-22T07:40:23;19.95;;;13.60;;
24337;SDS011;12457;50.832;4.346;2023-06-22T07:42:49;19.30;;;13.15;;
24337;SDS011;12457;50.832;4.346;2023-06-22T07:45:16;16.42;;;12.73;;
24337;SDS011;12457;50.832;4.346;2023-06-22T07:47:44;21.67;;;13.50;;
24337;SDS011;12457;50.832;4.346;2023-06-22T07:50:09;23.85;;;14.00;;
24337;SDS011;12457;50.832;4.346;2023-06-22T07:52:36;24.65;;;13.70;;
24337;SDS011;12457;50.832;4.346;2023-06-22T07:55:09;22.27;;;13.52;;
24337;SDS011;12457;50.832;4.346;2023-06-22T07:57:34;22.55;;;13.77;;
24337;SDS011;12457;50.832;4.346;2023-06-22T08:00:03;18.58;;;13.40;;
24337;SDS011;12457;50.832;4.346;2023-06-22T08:02:40;20.05;;;14.00;;
24337;SDS011;12457;50.832;4.346;2023-06-22T08:05:07;22.15;;;13.32;;
24337;SDS011;12457;50.832;4.346;2023-06-22T08:07:35;19.13;;;13.20;;
24337;SDS011;12457;50.832;4.346;2023-06-22T08:10:03;18.42;;;12.50;;
24337;SDS011;12457;50.832;4.346;2023-06-22T08:12:29;16.45;;;11.80;;
24337;SDS011;12457;50.832;4.346;2023-06-22T08:14:55;18.77;;;12.30;;
24337;SDS011;12457;50.832;4.346;2023-06-22T08:17:22;21.55;;;13.65;;
24337;SDS011;12457;50.832;4.346;2023-06-22T08:19:48;17.05;;;12.02;;
24337;SDS011;12457;50.832;4.346;2023-06-22T08:22:15;21.40;;;11.98;;
24337;SDS011;12457;50.832;4.346;2023-06-22T08:24:42;19.67;;;12.30;;
24337;SDS011;12457;50.832;4.346;2023-06-22T08:27:07;19.25;;;12.88;;
24337;SDS011;12457;50.832;4.346;2023-06-22T08:29:36;25.50;;;13.38;;
24337;SDS011;12457;50.832;4.346;2023-06-22T08:32:02;24.98;;;12.90;;
24337;SDS011;12457;50.832;4.346;2023-06-22T08:34:29;19.65;;;13.35;;
24337;SDS011;12457;50.832;4.346;2023-06-22T08:36:55;19.90;;;13.50;;
24337;SDS011;12457;50.832;4.346;2023-06-22T08:39:22;20.75;;;13.50;;
24337;SDS011;12457;50.832;4.346;2023-06-22T08:41:49;21.20;;;13.40;;
24337;SDS011;12457;50.832;4.346;2023-06-22T08:44:18;17.70;;;13.65;;
24337;SDS011;12457;50.832;4.346;2023-06-22T08:46:44;21.42;;;12.95;;
24337;SDS011;12457;50.832;4.346;2023-06-22T08:49:12;17.80;;;13.07;;
24337;SDS011;12457;50.832;4.346;2023-06-22T08:51:38;18.83;;;12.80;;
24337;SDS011;12457;50.832;4.346;2023-06-22T08:54:04;20.85;;;12.82;;
24337;SDS011;12457;50.832;4.346;2023-06-22T08:56:30;23.00;;;13.30;;
24337;SDS011;12457;50.832;4.346;2023-06-22T08:58:55;16.27;;;12.25;;
24337;SDS011;12457;50.832;4.346;2023-06-22T09:01:22;23.17;;;14.07;;
24337;SDS011;12457;50.832;4.346;2023-06-22T09:03:50;19.60;;;13.20;;
24337;SDS011;12457;50.832;4.346;2023-06-22T09:06:20;22.67;;;14.45;;
24337;SDS011;12457;50.832;4.346;2023-06-22T09:08:47;19.83;;;13.38;;
24337;SDS011;12457;50.832;4.346;2023-06-22T09:11:13;23.05;;;14.13;;
24337;SDS011;12457;50.832;4.346;2023-06-22T09:13:39;22.63;;;13.35;;
24337;SDS011;12457;50.832;4.346;2023-06-22T09:16:05;21.20;;;13.13;;
24337;SDS011;12457;50.832;4.346;2023-06-22T09:18:31;23.85;;;13.38;;
24337;SDS011;12457;50.832;4.346;2023-06-22T09:20:58;18.88;;;11.68;;
24337;SDS011;12457;50.832;4.346;2023-06-22T09:23:24;19.13;;;12.25;;
24337;SDS011;12457;50.832;4.346;2023-06-22T09:25:51;20.83;;;11.82;;
24337;SDS011;12457;50.832;4.346;2023-06-22T09:28:17;22.70;;;13.57;;
24337;SDS011;12457;50.832;4.346;2023-06-22T09:30:44;21.00;;;13.63;;
24337;SDS011;12457;50.832;4.346;2023-06-22T09:33:09;25.70;;;14.90;;
24337;SDS011;12457;50.832;4.346;2023-06-22T09:35:35;21.40;;;14.85;;
24337;SDS011;12457;50.832;4.346;2023-06-22T09:38:01;22.92;;;14.85;;
24337;SDS011;12457;50.832;4.346;2023-06-22T09:40:32;23.35;;;15.95;;
24337;SDS011;12457;50.832;4.346;2023-06-22T09:43:00;48.03;;;18.40;;
24337;SDS011;12457;50.832;4.346;2023-06-22T09:45:27;38.92;;;19.05;;
24337;SDS011;12457;50.832;4.346;2023-06-22T09:47:53;31.35;;;16.48;;
24337;SDS011;12457;50.832;4.346;2023-06-22T09:50:18;27.15;;;16.70;;
24337;SDS011;12457;50.832;4.346;2023-06-22T09:52:44;28.33;;;18.30;;
24337;SDS011;12457;50.832;4.346;2023-06-22T09:55:16;34.58;;;20.55;;
24337;SDS011;12457;50.832;4.346;2023-06-22T09:57:41;35.75;;;19.83;;
24337;SDS011;12457;50.832;4.346;2023-06-22T10:00:07;40.83;;;21.27;;
24337;SDS011;12457;50.832;4.346;2023-06-22T10:02:35;42.00;;;26.55;;
24337;SDS011;12457;50.832;4.346;2023-06-22T10:05:01;36.20;;;24.75;;
24337;SDS011;12457;50.832;4.346;2023-06-22T10:07:27;34.65;;;23.35;;
24337;SDS011;12457;50.832;4.346;2023-06-22T10:09:53;35.30;;;24.42;;
24337;SDS011;12457;50.832;4.346;2023-06-22T10:12:18;34.38;;;23.58;;
24337;SDS011;12457;50.832;4.346;2023-06-22T10:14:44;32.85;;;21.85;;
24337;SDS011;12457;50.832;4.346;2023-06-22T10:17:09;32.78;;;21.70;;
24337;SDS011;12457;50.832;4.346;2023-06-22T10:19:36;36.00;;;21.60;;
24337;SDS011;12457;50.832;4.346;2023-06-22T10:22:04;31.30;;;22.65;;
24337;SDS011;12457;50.832;4.346;2023-06-22T10:24:30;37.70;;;22.10;;
24337;SDS011;12457;50.832;4.346;2023-06-22T10:26:56;29.85;;;19.67;;
24337;SDS011;12457;50.832;4.346;2023-06-22T10:29:22;27.13;;;20.95;;
24337;SDS011;12457;50.832;4.346;2023-06-22T10:31:47;29.98;;;19.88;;
24337;SDS011;12457;50.832;4.346;2023-06-22T10:34:13;28.48;;;19.73;;
24337;SDS011;12457;50.832;4.346;2023-06-22T10:36:39;29.45;;;19.70;;
24337;SDS011;12457;50.832;4.346;2023-06-22T10:39:04;28.83;;;21.48;;
24337;SDS011;12457;50.832;4.346;2023-06-22T10:41:31;27.27;;;20.23;;
24337;SDS011;12457;50.832;4.346;2023-06-22T10:43:59;29.95;;;22.05;;
24337;SDS011;12457;50.832;4.346;2023-06-22T10:46:33;29.42;;;23.20;;
24337;SDS011;12457;50.832;4.346;2023-06-22T10:48:59;30.73;;;21.23;;
24337;SDS011;12457;50.832;4.346;2023-06-22T10:51:24;30.75;;;22.13;;
24337;SDS011;12457;50.832;4.346;2023-06-22T10:53:50;33.88;;;24.10;;
24337;SDS011;12457;50.832;4.346;2023-06-22T10:59:04;38.45;;;25.77;;
24337;SDS011;12457;50.832;4.346;2023-06-22T11:01:30;34.97;;;25.65;;
24337;SDS011;12457;50.832;4.346;2023-06-22T11:03:56;39.13;;;26.27;;
24337;SDS011;12457;50.832;4.346;2023-06-22T11:06:22;38.60;;;27.73;;
24337;SDS011;12457;50.832;4.346;2023-06-22T11:08:49;38.85;;;27.67;;
24337;SDS011;12457;50.832;4.346;2023-06-22T11:11:15;38.50;;;27.85;;
24337;SDS011;12457;50.832;4.346;2023-06-22T11:13:42;42.92;;;29.55;;
24337;SDS011;12457;50.832;4.346;2023-06-22T11:16:10;44.05;;;31.02;;
24337;SDS011;12457;50.832;4.346;2023-06-22T11:18:35;42.92;;;28.90;;
24337;SDS011;12457;50.832;4.346;2023-06-22T11:21:02;46.88;;;30.25;;
24337;SDS011;12457;50.832;4.346;2023-06-22T11:23:27;40.97;;;29.83;;
24337;SDS011;12457;50.832;4.346;2023-06-22T11:25:53;41.42;;;30.35;;
24337;SDS011;12457;50.832;4.346;2023-06-22T11:28:19;38.58;;;30.67;;
24337;SDS011;12457;50.832;4.346;2023-06-22T11:30:45;45.67;;;30.70;;
24337;SDS011;12457;50.832;4.346;2023-06-22T11:33:11;39.90;;;26.90;;
24337;SDS011;12457;50.832;4.346;2023-06-22T11:35:37;37.45;;;28.02;;
24337;SDS011;12457;50.832;4.346;2023-06-22T11:38:02;45.38;;;30.25;;
24337;SDS011;12457;50.832;4.346;2023-06-22T11:40:30;38.55;;;27.30;;
24337;SDS011;12457;50.832;4.346;2023-06-22T11:42:57;36.40;;;26.63;;
24337;SDS011;12457;50.832;4.346;2023-06-22T11:45:24;36.83;;;26.52;;
24337;SDS011;12457;50.832;4.346;2023-06-22T11:47:50;35.55;;;25.80;;
24337;SDS011;12457;50.832;4.346;2023-06-22T11:50:17;40.80;;;27.25;;
24337;SDS011;12457;50.832;4.346;2023-06-22T11:52:42;37.45;;;25.88;;
24337;SDS011;12457;50.832;4.346;2023-06-22T11:55:09;36.05;;;25.30;;
24337;SDS011;12457;50.832;4.346;2023-06-22T11:57:35;42.30;;;26.85;;
24337;SDS011;12457;50.832;4.346;2023-06-22T12:00:03;40.63;;;26.95;;
24337;SDS011;12457;50.832;4.346;2023-06-22T12:02:41;43.67;;;28.48;;
24337;SDS011;12457;50.832;4.346;2023-06-22T12:05:07;39.08;;;27.40;;
24337;SDS011;12457;50.832;4.346;2023-06-22T12:07:33;36.40;;;25.85;;
24337;SDS011;12457;50.832;4.346;2023-06-22T12:09:59;38.60;;;26.13;;
24337;SDS011;12457;50.832;4.346;2023-06-22T12:12:38;37.03;;;26.45;;
24337;SDS011;12457;50.832;4.346;2023-06-22T12:15:04;35.00;;;24.85;;
24337;SDS011;12457;50.832;4.346;2023-06-22T12:17:30;38.53;;;26.27;;
24337;SDS011;12457;50.832;4.346;2023-06-22T12:19:56;37.67;;;27.33;;
24337;SDS011;12457;50.832;4.346;2023-06-22T12:22:22;35.80;;;25.70;;
24337;SDS011;12457;50.832;4.346;2023-06-22T12:24:48;41.00;;;26.50;;
24337;SDS011;12457;50.832;4.346;2023-06-22T12:27:14;37.88;;;27.70;;
24337;SDS011;12457;50.832;4.346;2023-06-22T12:29:43;41.95;;;28.33;;
24337;SDS011;12457;50.832;4.346;2023-06-22T12:32:10;39.63;;;28.10;;
24337;SDS011;12457;50.832;4.346;2023-06-22T12:34:38;42.38;;;28.70;;
24337;SDS011;12457;50.832;4.346;2023-06-22T12:37:04;38.25;;;29.00;;
24337;SDS011;12457;50.832;4.346;2023-06-22T12:39:31;46.63;;;30.05;;
24337;SDS011;12457;50.832;4.346;2023-06-22T12:41:57;39.47;;;28.85;;
24337;SDS011;12457;50.832;4.346;2023-06-22T12:44:22;43.50;;;31.33;;
24337;SDS011;12457;50.832;4.346;2023-06-22T12:46:48;44.40;;;31.77;;
24337;SDS011;12457;50.832;4.346;2023-06-22T12:49:14;43.92;;;32.17;;
24337;SDS011;12457;50.832;4.346;2023-06-22T12:51:40;50.45;;;32.13;;
24337;SDS011;12457;50.832;4.346;2023-06-22T12:54:08;47.88;;;33.33;;
24337;SDS011;12457;50.832;4.346;2023-06-22T12:56:35;51.58;;;33.80;;
24337;SDS011;12457;50.832;4.346;2023-06-22T12:59:01;59.85;;;34.13;;
24337;SDS011;12457;50.832;4.346;2023-06-22T13:01:27;50.38;;;34.85;;
24337;SDS011;12457;50.832;4.346;2023-06-22T13:03:54;51.72;;;35.50;;
24337;SDS011;12457;50.832;4.346;2023-06-22T13:06:20;55.40;;;35.85;;
24337;SDS011;12457;50.832;4.346;2023-06-22T13:08:45;26.95;;;18.75;;
24337;SDS011;12457;50.832;4.346;2023-06-22T13:11:11;1.77;;;1.52;;
24337;SDS011;12457;50.832;4.346;2023-06-22T13:13:37;2.25;;;1.55;;
24337;SDS011;12457;50.832;4.346;2023-06-22T13:16:03;1.80;;;1.70;;
24337;SDS011;12457;50.832;4.346;2023-06-22T13:18:29;2.75;;;1.95;;
24337;SDS011;12457;50.832;4.346;2023-06-22T13:20:54;4.53;;;1.70;;
24337;SDS011;12457;50.832;4.346;2023-06-22T13:23:21;3.58;;;1.65;;
24337;SDS011;12457;50.832;4.346;2023-06-22T13:25:47;1.13;;;0.90;;
24337;SDS011;12457;50.832;4.346;2023-06-22T13:28:12;3.38;;;2.05;;
24337;SDS011;12457;50.832;4.346;2023-06-22T13:30:40;1.63;;;1.42;;
24337;SDS011;12457;50.832;4.346;2023-06-22T13:33:07;2.35;;;1.50;;
24337;SDS011;12457;50.832;4.346;2023-06-22T13:35:33;2.83;;;2.05;;
24337;SDS011;12457;50.832;4.346;2023-06-22T13:38:00;5.65;;;2.53;;
24337;SDS011;12457;50.832;4.346;2023-06-22T13:40:26;2.17;;;1.25;;
24337;SDS011;12457;50.832;4.346;2023-06-22T13:42:52;0.88;;;0.88;;
24337;SDS011;12457;50.832;4.346;2023-06-22T13:45:17;1.58;;;1.38;;
24337;SDS011;12457;50.832;4.346;2023-06-22T13:47:45;7.18;;;1.58;;
24337;SDS011;12457;50.832;4.346;2023-06-22T13:50:10;0.63;;;0.63;;
24337;SDS011;12457;50.832;4.346;2023-06-22T13:52:37;4.70;;;1.10;;
24337;SDS011;12457;50.832;4.346;2023-06-22T13:55:04;0.98;;;0.93;;
24337;SDS011;12457;50.832;4.346;2023-06-22T13:57:30;0.70;;;0.70;;
24337;SDS011;12457;50.832;4.346;2023-06-22T13:59:56;2.40;;;1.23;;
24337;SDS011;12457;50.832;4.346;2023-06-22T14:02:23;2.83;;;1.65;;
24337;SDS011;12457;50.832;4.346;2023-06-22T14:04:48;1.73;;;1.50;;
24337;SDS011;12457;50.832;4.346;2023-06-22T14:07:14;5.00;;;1.55;;
24337;SDS011;12457;50.832;4.346;2023-06-22T14:09:40;0.82;;;0.80;;
24337;SDS011;12457;50.832;4.346;2023-06-22T14:12:06;1.27;;;1.17;;
24337;SDS011;12457;50.832;4.346;2023-06-22T14:14:32;2.67;;;2.38;;
24337;SDS011;12457;50.832;4.346;2023-06-22T14:16:58;1.20;;;1.08;;
24337;SDS011;12457;50.832;4.346;2023-06-22T14:19:24;3.05;;;1.70;;
24337;SDS011;12457;50.832;4.346;2023-06-22T14:21:50;3.30;;;1.23;;
24337;SDS011;12457;50.832;4.346;2023-06-22T14:24:16;2.22;;;1.52;;
24337;SDS011;12457;50.832;4.346;2023-06-22T14:26:42;1.58;;;1.10;;
24337;SDS011;12457;50.832;4.346;2023-06-22T14:29:11;2.40;;;1.60;;
24337;SDS011;12457;50.832;4.346;2023-06-22T14:31:36;1.42;;;1.33;;
24337;SDS011;12457;50.832;4.346;2023-06-22T14:34:02;13.07;;;1.98;;
24337;SDS011;12457;50.832;4.346;2023-06-22T14:36:28;5.60;;;3.17;;
24337;SDS011;12457;50.832;4.346;2023-06-22T14:38:54;1.88;;;1.70;;
24337;SDS011;12457;50.832;4.346;2023-06-22T14:41:20;2.33;;;1.50;;